createdAt,value
2019-04-16T00:01:45.311Z,9.91
2019-04-16T00:04:27.364Z,9.88
2019-04-16T00:07:06.551Z,9.87
2019-04-16T00:09:39.838Z,9.88
2019-04-16T00:12:29.008Z,9.90
2019-04-16T00:15:01.411Z,9.76
2019-04-16T00:17:32.939Z,9.76
2019-04-16T00:20:06.984Z,9.78
2019-04-16T00:22:56.760Z,9.79
2019-04-16T00:25:28.159Z,9.70
2019-04-16T00:28:00.862Z,9.61
2019-04-16T00:30:35.512Z,9.59
2019-04-16T00:33:07.503Z,9.50
2019-04-16T00:35:38.920Z,9.49
2019-04-16T00:38:10.332Z,9.42
2019-04-16T00:40:41.735Z,9.36
2019-04-16T00:43:13.065Z,9.31
2019-04-16T00:45:44.656Z,9.32
2019-04-16T00:48:16.085Z,9.30
2019-04-16T00:50:47.534Z,9.23
2019-04-16T00:53:18.883Z,9.20
2019-04-16T00:55:50.131Z,9.19
2019-04-16T00:58:21.636Z,9.14
2019-04-16T01:00:53.051Z,9.16
2019-04-16T01:03:24.541Z,9.18
2019-04-16T01:05:55.906Z,9.18
2019-04-16T01:08:27.185Z,9.13
2019-04-16T01:10:58.584Z,9.16
2019-04-16T01:13:29.944Z,9.19
2019-04-16T01:16:03.788Z,9.16
2019-04-16T01:18:38.459Z,9.14
2019-04-16T01:21:13.726Z,9.16
2019-04-16T01:23:42.374Z,9.19
2019-04-16T01:26:13.929Z,9.14
2019-04-16T01:28:46.987Z,9.14
2019-04-16T01:31:23.004Z,9.11
2019-04-16T01:34:15.281Z,9.16
2019-04-16T01:37:04.511Z,9.17
2019-04-16T01:39:37.595Z,9.20
2019-04-16T01:42:11.195Z,9.14
2019-04-16T01:44:42.802Z,9.13
2019-04-16T01:47:14.216Z,9.15
2019-04-16T01:49:45.586Z,9.11
2019-04-16T01:52:18.950Z,9.10
2019-04-16T01:54:51.393Z,9.07
2019-04-16T01:57:23.219Z,9.08
2019-04-16T01:59:55.051Z,9.06
2019-04-16T02:02:27.553Z,9.02
2019-04-16T02:04:59.275Z,9.07
2019-04-16T02:07:30.593Z,9.04
2019-04-16T02:10:06.291Z,9.06
2019-04-16T02:12:35.173Z,9.07
2019-04-16T02:15:07.852Z,9.07
2019-04-16T02:17:39.351Z,9.10
2019-04-16T02:20:13.259Z,9.07
2019-04-16T02:22:45.677Z,9.06
2019-04-16T02:25:20.080Z,9.04
2019-04-16T02:27:50.348Z,9.04
2019-04-16T02:30:21.750Z,8.98
2019-04-16T02:32:53.219Z,8.99
2019-04-16T02:35:24.513Z,8.99
2019-04-16T02:37:55.940Z,8.97
2019-04-16T02:40:28.328Z,8.99
2019-04-16T02:43:03.937Z,9.04
2019-04-16T02:45:33.054Z,9.06
2019-04-16T02:48:04.484Z,9.05
2019-04-16T02:50:49.474Z,9.04
2019-04-16T02:53:37.873Z,9.03
2019-04-16T02:56:17.397Z,8.97
2019-04-16T02:58:45.568Z,9.01
2019-04-16T03:01:20.827Z,9.01
2019-04-16T03:03:56.879Z,9.05
2019-04-16T03:06:31.711Z,9.09
2019-04-16T03:09:08.005Z,9.08
2019-04-16T03:11:36.046Z,9.02
2019-04-16T03:14:08.477Z,9.09
2019-04-16T03:16:50.554Z,9.06
2019-04-16T03:19:29.566Z,9.07
2019-04-16T03:22:02.847Z,9.02
2019-04-16T03:24:37.489Z,9.07
2019-04-16T03:27:10.255Z,9.07
2019-04-16T03:29:41.728Z,9.02
2019-04-16T03:32:14.975Z,9.00
2019-04-16T03:34:46.095Z,9.03
2019-04-16T03:37:17.492Z,9.03
2019-04-16T03:39:48.756Z,9.08
2019-04-16T03:42:20.098Z,9.11
2019-04-16T03:44:51.415Z,9.05
2019-04-16T03:47:22.755Z,9.06
2019-04-16T03:49:56.410Z,9.00
2019-04-16T03:52:27.334Z,8.97
2019-04-16T03:54:58.751Z,8.91
2019-04-16T03:57:32.627Z,8.90
2019-04-16T04:00:03.228Z,8.91
2019-04-16T04:02:35.765Z,8.89
2019-04-16T04:05:07.793Z,8.89
2019-04-16T04:07:43.845Z,8.89
2019-04-16T04:10:13.332Z,8.88
2019-04-16T04:12:45.648Z,8.92
2019-04-16T04:15:17.884Z,8.95
2019-04-16T04:17:49.599Z,8.95
2019-04-16T04:20:23.286Z,8.92
2019-04-16T04:22:57.194Z,8.96
2019-04-16T04:25:27.926Z,8.98
2019-04-16T04:27:59.262Z,8.87
2019-04-16T04:30:30.673Z,8.91
2019-04-16T04:33:07.692Z,8.91
2019-04-16T04:35:35.456Z,8.92
2019-04-16T04:38:08.908Z,8.90
2019-04-16T04:40:44.662Z,8.93
2019-04-16T04:43:13.475Z,8.99
2019-04-16T04:45:45.063Z,9.03
2019-04-16T04:48:16.466Z,9.00
2019-04-16T04:50:47.908Z,8.91
2019-04-16T04:53:20.052Z,9.05
2019-04-16T04:55:51.537Z,8.98
2019-04-16T04:58:23.358Z,8.99
2019-04-16T05:00:54.939Z,9.04
2019-04-16T05:03:28.097Z,8.99
2019-04-16T05:06:01.130Z,9.07
2019-04-16T05:08:32.538Z,9.08
2019-04-16T05:11:04.031Z,9.01
2019-04-16T05:13:35.456Z,9.06
2019-04-16T05:16:07.181Z,9.10
2019-04-16T05:18:42.019Z,9.05
2019-04-16T05:21:11.944Z,9.07
2019-04-16T05:23:43.430Z,9.11
2019-04-16T05:26:14.805Z,9.11
2019-04-16T05:28:46.361Z,9.13
2019-04-16T05:31:17.879Z,9.17
2019-04-16T05:33:49.189Z,9.17
2019-04-16T05:36:21.559Z,9.13
2019-04-16T05:38:55.603Z,9.22
2019-04-16T05:41:26.285Z,9.24
2019-04-16T05:43:58.500Z,9.26
2019-04-16T05:46:31.871Z,9.35
2019-04-16T05:49:03.499Z,9.36
2019-04-16T05:51:36.348Z,9.35
2019-04-16T05:54:13.291Z,9.41
2019-04-16T05:56:55.730Z,9.41
2019-04-16T05:59:27.029Z,9.27
2019-04-16T06:02:15.117Z,9.19
2019-04-16T06:04:45.391Z,9.14
2019-04-16T06:07:16.680Z,9.10
2019-04-16T06:09:48.593Z,9.09
2019-04-16T06:12:21.205Z,9.17
2019-04-16T06:14:55.274Z,9.16
2019-04-16T06:17:32.167Z,9.25
2019-04-16T06:20:19.105Z,9.32
2019-04-16T06:23:09.510Z,9.32
2019-04-16T06:25:46.389Z,9.35
2019-04-16T06:28:19.574Z,9.29
2019-04-16T06:30:58.643Z,9.27
2019-04-16T06:33:31.590Z,9.26
2019-04-16T06:36:10.375Z,9.30
2019-04-16T06:38:46.209Z,9.53
2019-04-16T06:41:41.581Z,9.61
2019-04-16T06:44:12.385Z,9.40
2019-04-16T06:46:48.692Z,9.30
2019-04-16T06:49:40.042Z,9.49
2019-04-16T06:52:29.144Z,9.50
2019-04-16T06:55:14.384Z,9.23
2019-04-16T06:58:03.802Z,9.24
2019-04-16T07:00:49.372Z,9.31
2019-04-16T07:03:40.897Z,9.27
2019-04-16T07:06:30.423Z,9.32
2019-04-16T07:09:03.439Z,9.30
2019-04-16T07:11:38.309Z,9.47
2019-04-16T07:14:11.511Z,9.42
2019-04-16T07:16:42.993Z,9.41
2019-04-16T07:19:16.763Z,9.35
2019-04-16T07:21:49.710Z,9.26
2019-04-16T07:24:24.125Z,9.28
2019-04-16T07:26:57.459Z,9.12
2019-04-16T07:29:33.812Z,9.04
2019-04-16T07:32:09.830Z,9.07
2019-04-16T07:34:43.008Z,9.04
2019-04-16T07:37:33.198Z,9.10
2019-04-16T07:40:23.330Z,9.06
2019-04-16T07:43:02.096Z,9.17
2019-04-16T07:45:44.368Z,9.31
2019-04-16T07:48:27.539Z,9.48
2019-04-16T07:51:15.563Z,9.46
2019-04-16T07:54:04.090Z,9.50
2019-04-16T07:56:36.385Z,9.63
2019-04-16T07:59:07.872Z,9.66
2019-04-16T08:01:39.257Z,9.64
2019-04-16T08:04:10.615Z,9.66
2019-04-16T08:06:46.432Z,9.73
2019-04-16T08:09:16.767Z,9.71
2019-04-16T08:11:49.262Z,9.66
2019-04-16T08:14:20.615Z,9.62
2019-04-16T08:16:54.594Z,9.61
2019-04-16T08:19:36.556Z,9.60
2019-04-16T08:21:59.252Z,9.62
2019-04-16T08:24:32.174Z,9.69
2019-04-16T08:27:03.637Z,9.73
2019-04-16T08:29:34.991Z,9.90
2019-04-16T08:32:06.516Z,9.98
2019-04-16T08:34:37.918Z,10.10
2019-04-16T08:37:09.470Z,10.22
2019-04-16T08:39:40.920Z,10.37
2019-04-16T08:42:12.514Z,10.39
2019-04-16T08:44:43.972Z,10.41
2019-04-16T08:47:15.420Z,10.41
2019-04-16T08:49:47.069Z,10.59
2019-04-16T08:52:18.599Z,10.56
2019-04-16T08:54:54.565Z,10.58
2019-04-16T08:57:23.434Z,10.64
2019-04-16T08:59:54.935Z,10.79
2019-04-16T09:02:27.305Z,10.93
2019-04-16T09:04:58.928Z,10.74
2019-04-16T09:07:42.368Z,10.78
2019-04-16T09:10:20.296Z,10.70
2019-04-16T09:13:02.408Z,10.76
2019-04-16T09:15:27.104Z,10.73
2019-04-16T09:17:59.501Z,10.64
2019-04-16T09:20:34.672Z,10.59
2019-04-16T09:23:05.730Z,10.47
2019-04-16T09:25:42.561Z,10.46
2019-04-16T09:28:25.592Z,10.56
2019-04-16T09:31:11.235Z,10.71
2019-04-16T09:33:57.427Z,10.71
2019-04-16T09:36:33.631Z,10.70
2019-04-16T09:39:14.125Z,10.52
2019-04-16T09:41:46.341Z,10.39
2019-04-16T09:44:19.765Z,10.39
2019-04-16T09:46:52.194Z,10.38
2019-04-16T09:49:23.890Z,10.40
2019-04-16T09:51:55.418Z,10.44
2019-04-16T09:54:26.736Z,10.38
2019-04-16T09:56:59.739Z,10.36
2019-04-16T09:59:39.228Z,10.37
2019-04-16T10:02:12.221Z,10.49
2019-04-16T10:04:43.655Z,10.50
2019-04-16T10:07:15.079Z,10.54
2019-04-16T10:09:46.451Z,10.53
2019-04-16T10:12:24.987Z,10.51
2019-04-16T10:15:01.937Z,10.50
2019-04-16T10:17:34.534Z,10.49
2019-04-16T10:20:07.131Z,10.52
2019-04-16T10:22:38.552Z,10.43
2019-04-16T10:25:15.108Z,10.44
2019-04-16T10:27:48.261Z,10.40
2019-04-16T10:30:24.518Z,10.39
2019-04-16T10:32:56.160Z,10.35
2019-04-16T10:35:27.544Z,10.32
2019-04-16T10:38:01.723Z,10.38
2019-04-16T10:40:37.269Z,10.36
2019-04-16T10:43:25.302Z,10.52
2019-04-16T10:46:04.118Z,10.70
2019-04-16T10:48:40.418Z,10.80
2019-04-16T10:51:15.525Z,10.90
2019-04-16T10:54:04.605Z,10.79
2019-04-16T10:56:50.683Z,10.83
2019-04-16T10:59:39.189Z,10.98
2019-04-16T11:02:15.212Z,11.13
2019-04-16T11:04:54.119Z,11.06
2019-04-16T11:07:29.931Z,11.11
2019-04-16T11:10:01.428Z,10.90
2019-04-16T11:12:33.157Z,10.68
2019-04-16T11:15:05.514Z,10.62
2019-04-16T11:17:38.273Z,10.64
2019-04-16T11:20:10.753Z,10.78
2019-04-16T11:22:43.238Z,10.64
2019-04-16T11:25:14.760Z,10.76
2019-04-16T11:27:46.363Z,10.93
2019-04-16T11:30:31.351Z,10.89
2019-04-16T11:33:03.119Z,10.93
2019-04-16T11:35:35.869Z,11.08
2019-04-16T11:38:07.667Z,11.04
2019-04-16T11:40:41.095Z,11.07
2019-04-16T11:43:12.361Z,11.02
2019-04-16T11:45:45.244Z,11.05
2019-04-16T11:48:17.744Z,10.95
2019-04-16T11:50:49.315Z,11.00
2019-04-16T11:53:21.151Z,11.10
2019-04-16T11:55:53.394Z,11.05
2019-04-16T11:58:45.418Z,11.11
2019-04-16T12:01:22.906Z,11.15
2019-04-16T12:04:03.785Z,11.05
2019-04-16T12:06:37.820Z,10.86
2019-04-16T12:09:26.594Z,10.88
2019-04-16T12:11:59.738Z,10.84
2019-04-16T12:14:35.555Z,10.84
2019-04-16T12:17:25.020Z,10.90
2019-04-16T12:20:14.814Z,10.86
2019-04-16T12:22:50.685Z,10.62
2019-04-16T12:25:26.584Z,10.56
2019-04-16T12:28:11.308Z,10.44
2019-04-16T12:30:41.045Z,10.30
2019-04-16T12:33:14.602Z,10.28
2019-04-16T12:35:58.035Z,10.25
2019-04-16T12:38:37.188Z,10.30
2019-04-16T12:41:19.308Z,10.36
2019-04-16T12:43:52.328Z,10.37
2019-04-16T12:46:26.660Z,10.43
2019-04-16T12:49:02.357Z,10.28
2019-04-16T12:51:53.598Z,10.36
2019-04-16T12:54:37.773Z,10.33
2019-04-16T12:57:14.499Z,10.39
2019-04-16T12:59:54.646Z,10.51
2019-04-16T13:02:25.297Z,10.49
2019-04-16T13:04:59.369Z,10.52
2019-04-16T13:07:38.876Z,10.73
2019-04-16T13:10:16.400Z,10.81
2019-04-16T13:12:49.576Z,10.87
2019-04-16T13:15:22.561Z,10.94
2019-04-16T13:18:12.327Z,10.96
2019-04-16T13:21:05.433Z,11.01
2019-04-16T13:23:36.440Z,10.96
2019-04-16T13:26:13.858Z,10.77
2019-04-16T13:28:46.542Z,10.81
2019-04-16T13:31:18.110Z,10.66
2019-04-16T13:33:50.941Z,10.46
2019-04-16T13:36:27.025Z,10.33
2019-04-16T13:39:06.109Z,10.25
2019-04-16T13:41:38.244Z,10.17
2019-04-16T13:44:11.429Z,10.25
2019-04-16T13:46:43.842Z,10.33
2019-04-16T13:49:16.817Z,10.50
2019-04-16T13:51:49.840Z,10.54
2019-04-16T13:54:37.731Z,10.68
2019-04-16T13:57:17.968Z,10.68
2019-04-16T14:00:04.461Z,10.76
2019-04-16T14:02:47.870Z,10.77
2019-04-16T14:05:18.259Z,10.81
2019-04-16T14:07:51.101Z,10.74
2019-04-16T14:10:22.861Z,10.64
2019-04-16T14:12:54.265Z,10.68
2019-04-16T14:15:32.322Z,10.82
2019-04-16T14:18:00.831Z,10.95
2019-04-16T14:20:32.613Z,10.91
2019-04-16T14:23:05.337Z,10.95
2019-04-16T14:25:36.815Z,11.10
2019-04-16T14:28:08.287Z,11.09
2019-04-16T14:30:42.878Z,11.12
2019-04-16T14:33:15.975Z,11.17
2019-04-16T14:35:47.910Z,11.20
2019-04-16T14:38:21.211Z,11.11
2019-04-16T14:40:54.213Z,11.07
2019-04-16T14:43:29.444Z,11.09
2019-04-16T14:46:02.718Z,10.95
2019-04-16T14:48:39.055Z,10.72
2019-04-16T14:51:08.584Z,10.66
2019-04-16T14:53:41.875Z,10.61
2019-04-16T14:56:15.965Z,10.69
2019-04-16T14:58:49.046Z,10.68
2019-04-16T15:01:25.207Z,10.68
2019-04-16T15:04:01.269Z,10.68
2019-04-16T15:06:52.945Z,10.69
2019-04-16T15:09:25.811Z,10.71
2019-04-16T15:12:14.203Z,10.76
2019-04-16T15:14:56.467Z,10.72
2019-04-16T15:17:30.393Z,10.71
2019-04-16T15:20:20.990Z,10.69
2019-04-16T15:23:10.120Z,10.68
2019-04-16T15:25:45.929Z,10.65
2019-04-16T15:28:19.102Z,10.66
2019-04-16T15:30:52.177Z,10.73
2019-04-16T15:33:26.527Z,10.77
2019-04-16T15:36:08.730Z,10.68
2019-04-16T15:38:54.077Z,10.72
2019-04-16T15:41:41.722Z,10.71
2019-04-16T15:44:23.990Z,10.74
2019-04-16T15:47:04.067Z,10.79
2019-04-16T15:49:40.303Z,10.76
2019-04-16T15:52:29.549Z,10.85
2019-04-16T15:55:02.607Z,10.83
2019-04-16T15:57:41.473Z,10.72
2019-04-16T16:00:30.946Z,10.76
2019-04-16T16:03:07.192Z,10.78
2019-04-16T16:05:40.283Z,10.69
2019-04-16T16:08:23.474Z,10.64
2019-04-16T16:10:58.181Z,10.66
2019-04-16T16:13:29.705Z,10.66
2019-04-16T16:16:02.661Z,10.66
2019-04-16T16:18:35.887Z,10.72
2019-04-16T16:21:07.304Z,10.76
2019-04-16T16:23:38.784Z,10.74
2019-04-16T16:26:10.288Z,10.69
2019-04-16T16:28:41.642Z,10.64
2019-04-16T16:31:13.139Z,10.68
2019-04-16T16:33:46.867Z,10.66
2019-04-16T16:36:18.372Z,10.72
2019-04-16T16:38:49.960Z,10.77
2019-04-16T16:41:21.298Z,10.77
2019-04-16T16:43:52.899Z,10.75
2019-04-16T16:46:37.909Z,10.81
2019-04-16T16:49:09.247Z,10.77
2019-04-16T16:51:42.367Z,10.75
2019-04-16T16:54:15.393Z,10.74
2019-04-16T16:56:48.406Z,10.74
2019-04-16T16:59:30.584Z,10.64
2019-04-16T17:02:12.435Z,10.69
2019-04-16T17:04:45.536Z,10.70
2019-04-16T17:07:17.860Z,10.71
2019-04-16T17:09:49.523Z,10.65
2019-04-16T17:12:21.798Z,10.61
2019-04-16T17:14:53.539Z,10.63
2019-04-16T17:17:25.170Z,10.62
2019-04-16T17:19:56.687Z,10.64
2019-04-16T17:22:28.073Z,10.61
2019-04-16T17:24:59.492Z,10.64
2019-04-16T17:27:30.916Z,10.60
2019-04-16T17:30:02.638Z,10.57
2019-04-16T17:32:34.113Z,10.60
2019-04-16T17:35:07.585Z,10.59
2019-04-16T17:37:39.422Z,10.59
2019-04-16T17:40:16.270Z,10.56
2019-04-16T17:42:48.906Z,10.62
2019-04-16T17:45:24.488Z,10.62
2019-04-16T17:48:11.462Z,10.66
2019-04-16T17:50:53.476Z,10.71
2019-04-16T17:53:29.510Z,10.70
2019-04-16T17:56:18.722Z,10.63
2019-04-16T17:58:51.748Z,10.68
2019-04-16T18:01:30.742Z,10.75
2019-04-16T18:04:20.135Z,10.74
2019-04-16T18:06:56.073Z,10.66
2019-04-16T18:09:29.256Z,10.64
2019-04-16T18:12:08.296Z,10.69
2019-04-16T18:14:57.592Z,10.66
2019-04-16T18:17:48.035Z,10.68
2019-04-16T18:20:30.162Z,10.54
2019-04-16T18:23:12.573Z,10.55
2019-04-16T18:26:02.291Z,10.57
2019-04-16T18:28:35.306Z,10.48
2019-04-16T18:31:08.657Z,10.48
2019-04-16T18:33:44.450Z,10.53
2019-04-16T18:36:17.803Z,10.58
2019-04-16T18:38:50.876Z,10.60
2019-04-16T18:41:42.516Z,10.55
2019-04-16T18:44:24.728Z,10.53
2019-04-16T18:46:57.825Z,10.50
2019-04-16T18:49:30.935Z,10.52
2019-04-16T18:52:05.648Z,10.54
2019-04-16T18:54:36.782Z,10.54
2019-04-16T18:57:08.183Z,10.53
2019-04-16T18:59:39.754Z,10.51
2019-04-16T19:02:11.335Z,10.50
2019-04-16T19:04:42.897Z,10.52
2019-04-16T19:07:14.736Z,10.52
2019-04-16T19:09:46.343Z,10.53
2019-04-16T19:12:17.925Z,10.52
2019-04-16T19:14:49.595Z,10.46
2019-04-16T19:17:21.152Z,10.44
2019-04-16T19:19:54.576Z,10.36
2019-04-16T19:22:26.593Z,10.33
2019-04-16T19:24:58.239Z,10.26
2019-04-16T19:27:31.845Z,10.13
2019-04-16T19:30:09.872Z,10.06
2019-04-16T19:32:41.479Z,9.96
2019-04-16T19:35:19.186Z,9.92
2019-04-16T19:37:49.696Z,9.84
2019-04-16T19:40:21.219Z,9.79
2019-04-16T19:42:52.838Z,9.81
2019-04-16T19:45:24.453Z,9.83
2019-04-16T19:48:00.255Z,9.80
2019-04-16T19:50:36.170Z,9.70
2019-04-16T19:53:05.746Z,9.56
2019-04-16T19:55:37.107Z,9.56
2019-04-16T19:58:08.560Z,9.52
2019-04-16T20:00:40.103Z,9.54
2019-04-16T20:03:13.768Z,9.41
2019-04-16T20:05:45.756Z,9.42
2019-04-16T20:08:20.173Z,9.43
2019-04-16T20:10:51.746Z,9.42
2019-04-16T20:13:28.975Z,9.47
2019-04-16T20:16:00.793Z,9.53
2019-04-16T20:18:34.026Z,9.58
2019-04-16T20:21:05.681Z,9.54
2019-04-16T20:23:37.185Z,9.48
2019-04-16T20:26:08.785Z,9.47
2019-04-16T20:28:40.521Z,9.50
2019-04-16T20:31:12.103Z,9.53
2019-04-16T20:33:43.652Z,9.53
2019-04-16T20:36:15.377Z,9.49
2019-04-16T20:38:46.902Z,9.45
2019-04-16T20:41:19.248Z,9.50
2019-04-16T20:43:50.953Z,9.50
2019-04-16T20:46:22.496Z,9.49
2019-04-16T20:49:07.669Z,9.50
2019-04-16T20:51:29.400Z,9.41
2019-04-16T20:54:05.306Z,9.43
2019-04-16T20:56:40.343Z,9.41
2019-04-16T20:59:10.486Z,9.33
2019-04-16T21:01:41.876Z,9.35
2019-04-16T21:04:14.406Z,9.34
2019-04-16T21:06:47.318Z,9.28
2019-04-16T21:09:18.890Z,9.25
2019-04-16T21:11:52.696Z,9.19
2019-04-16T21:14:23.531Z,9.19
2019-04-16T21:16:55.087Z,9.23
2019-04-16T21:19:28.223Z,9.22
2019-04-16T21:22:01.722Z,9.24
2019-04-16T21:24:32.720Z,9.22
2019-04-16T21:27:04.182Z,9.20
2019-04-16T21:29:36.924Z,9.32
2019-04-16T21:32:10.950Z,9.27
2019-04-16T21:34:47.604Z,9.31
2019-04-16T21:37:20.822Z,9.34
2019-04-16T21:39:59.379Z,9.35
2019-04-16T21:42:34.221Z,9.32
2019-04-16T21:45:06.501Z,9.25
2019-04-16T21:47:37.930Z,9.22
2019-04-16T21:50:09.322Z,9.18
2019-04-16T21:52:40.769Z,9.16
2019-04-16T21:55:12.997Z,9.12
2019-04-16T21:57:46.064Z,9.11
2019-04-16T22:00:22.013Z,9.16
2019-04-16T22:02:56.048Z,9.25
2019-04-16T22:05:27.554Z,9.22
2019-04-16T22:07:59.024Z,9.29
2019-04-16T22:10:32.069Z,9.32
2019-04-16T22:13:03.529Z,9.28
2019-04-16T22:15:34.880Z,9.30
2019-04-16T22:18:08.740Z,9.27
2019-04-16T22:20:39.626Z,9.25
2019-04-16T22:23:11.062Z,9.14
2019-04-16T22:25:42.572Z,9.02
2019-04-16T22:28:14.846Z,8.96
2019-04-16T22:30:51.219Z,8.96
2019-04-16T22:33:19.552Z,9.03
2019-04-16T22:35:51.109Z,9.00
2019-04-16T22:38:24.179Z,9.00
2019-04-16T22:40:57.194Z,9.05
2019-04-16T22:43:39.583Z,9.03
2019-04-16T22:46:13.911Z,9.02
2019-04-16T22:48:55.359Z,8.93
2019-04-16T22:51:28.053Z,8.95
2019-04-16T22:53:59.460Z,8.93
2019-04-16T22:56:35.471Z,8.95
2019-04-16T22:59:08.243Z,8.89
2019-04-16T23:01:41.705Z,8.96
2019-04-16T23:04:14.549Z,8.90
2019-04-16T23:06:46.244Z,8.60
2019-04-16T23:09:18.044Z,8.50
2019-04-16T23:11:52.724Z,8.35
2019-04-16T23:14:23.696Z,8.25
2019-04-16T23:16:57.043Z,8.30
2019-04-16T23:19:28.490Z,8.27
2019-04-16T23:22:00.112Z,8.27
2019-04-16T23:24:31.518Z,8.26
2019-04-16T23:27:06.051Z,8.21
2019-04-16T23:29:36.478Z,8.20
2019-04-16T23:32:07.902Z,8.28
2019-04-16T23:34:40.685Z,8.32
2019-04-16T23:37:12.014Z,8.25
2019-04-16T23:39:43.629Z,8.19
2019-04-16T23:42:18.832Z,8.15
2019-04-16T23:44:54.723Z,8.14
2019-04-16T23:47:44.751Z,8.16
2019-04-16T23:50:44.320Z,8.16
2019-04-16T23:53:10.759Z,8.16
2019-04-16T23:55:52.570Z,8.16
2019-04-16T23:58:28.536Z,8.20
